sensor_id;sensor_type;location;lat;lon;timestamp;temperature;humidity
22787;DHT22;63134;52.020;4.714;2023-11-21T00:00:07;9.10;99.90
22787;DHT22;63134;52.020;4.714;2023-11-21T00:02:58;9.10;99.90
22787;DHT22;63134;52.020;4.714;2023-11-21T00:05:43;9.10;99.90
22787;DHT22;63134;52.020;4.714;2023-11-21T00:08:30;9.10;99.90
22787;DHT22;63134;52.020;4.714;2023-11-21T00:11:15;9.10;99.90
22787;DHT22;63134;52.020;4.714;2023-11-21T00:14:01;9.20;99.90
22787;DHT22;63134;52.020;4.714;2023-11-21T00:16:47;9.30;99.90
22787;DHT22;63134;52.020;4.714;2023-11-21T00:19:35;9.50;99.90
22787;DHT22;63134;52.020;4.714;2023-11-21T00:22:21;9.50;99.90
22787;DHT22;63134;52.020;4.714;2023-11-21T00:25:07;9.60;99.90
22787;DHT22;63134;52.020;4.714;2023-11-21T00:27:55;9.70;99.90
22787;DHT22;63134;52.020;4.714;2023-11-21T00:30:41;9.90;99.90
22787;DHT22;63134;52.020;4.714;2023-11-21T00:33:27;9.80;99.90
22787;DHT22;63134;52.020;4.714;2023-11-21T00:36:13;9.90;99.90
22787;DHT22;63134;52.020;4.714;2023-11-21T00:38:58;9.90;99.90
22787;DHT22;63134;52.020;4.714;2023-11-21T00:41:48;9.90;99.90
22787;DHT22;63134;52.020;4.714;2023-11-21T00:44:34;9.90;99.90
22787;DHT22;63134;52.020;4.714;2023-11-21T00:47:20;10.00;99.90
22787;DHT22;63134;52.020;4.714;2023-11-21T00:50:07;10.00;99.90
22787;DHT22;63134;52.020;4.714;2023-11-21T00:52:53;10.00;99.90
22787;DHT22;63134;52.020;4.714;2023-11-21T00:55:38;10.00;99.90
22787;DHT22;63134;52.020;4.714;2023-11-21T00:58:27;10.10;99.90
22787;DHT22;63134;52.020;4.714;2023-11-21T01:01:12;10.10;99.90
22787;DHT22;63134;52.020;4.714;2023-11-21T01:03:58;10.20;99.90
22787;DHT22;63134;52.020;4.714;2023-11-21T01:06:49;10.20;99.90
22787;DHT22;63134;52.020;4.714;2023-11-21T01:09:36;10.20;99.90
22787;DHT22;63134;52.020;4.714;2023-11-21T01:12:22;10.20;99.90
22787;DHT22;63134;52.020;4.714;2023-11-21T01:15:10;10.30;99.90
22787;DHT22;63134;52.020;4.714;2023-11-21T01:17:58;10.30;99.90
22787;DHT22;63134;52.020;4.714;2023-11-21T01:20:44;10.30;99.90
22787;DHT22;63134;52.020;4.714;2023-11-21T01:23:31;10.40;99.90
22787;DHT22;63134;52.020;4.714;2023-11-21T01:26:17;10.40;99.90
22787;DHT22;63134;52.020;4.714;2023-11-21T01:29:03;10.50;99.90
22787;DHT22;63134;52.020;4.714;2023-11-21T01:31:51;10.50;99.90
22787;DHT22;63134;52.020;4.714;2023-11-21T01:34:37;10.60;99.90
22787;DHT22;63134;52.020;4.714;2023-11-21T01:37:23;10.60;99.90
22787;DHT22;63134;52.020;4.714;2023-11-21T01:40:09;10.70;99.90
22787;DHT22;63134;52.020;4.714;2023-11-21T01:43:03;10.80;99.90
22787;DHT22;63134;52.020;4.714;2023-11-21T01:45:49;10.80;99.90
22787;DHT22;63134;52.020;4.714;2023-11-21T01:48:37;10.90;99.90
22787;DHT22;63134;52.020;4.714;2023-11-21T01:51:23;10.90;99.90
22787;DHT22;63134;52.020;4.714;2023-11-21T01:54:11;10.90;99.90
22787;DHT22;63134;52.020;4.714;2023-11-21T01:57:03;10.90;99.90
22787;DHT22;63134;52.020;4.714;2023-11-21T01:59:54;10.90;99.90
22787;DHT22;63134;52.020;4.714;2023-11-21T02:02:39;10.90;99.90
22787;DHT22;63134;52.020;4.714;2023-11-21T02:05:25;10.90;99.90
22787;DHT22;63134;52.020;4.714;2023-11-21T02:08:11;10.90;99.90
22787;DHT22;63134;52.020;4.714;2023-11-21T02:11:05;10.90;99.90
22787;DHT22;63134;52.020;4.714;2023-11-21T02:13:50;10.90;99.90
22787;DHT22;63134;52.020;4.714;2023-11-21T02:16:39;10.90;99.90
22787;DHT22;63134;52.020;4.714;2023-11-21T02:19:26;10.90;99.90
22787;DHT22;63134;52.020;4.714;2023-11-21T02:22:12;10.90;99.90
22787;DHT22;63134;52.020;4.714;2023-11-21T02:24:59;10.90;99.90
22787;DHT22;63134;52.020;4.714;2023-11-21T02:27:44;10.90;99.90
22787;DHT22;63134;52.020;4.714;2023-11-21T02:30:33;11.00;99.90
22787;DHT22;63134;52.020;4.714;2023-11-21T02:33:19;11.00;99.90
22787;DHT22;63134;52.020;4.714;2023-11-21T02:36:06;11.00;99.90
22787;DHT22;63134;52.020;4.714;2023-11-21T02:38:54;11.00;99.90
22787;DHT22;63134;52.020;4.714;2023-11-21T02:41:40;11.10;99.90
22787;DHT22;63134;52.020;4.714;2023-11-21T02:44:25;11.10;99.90
22787;DHT22;63134;52.020;4.714;2023-11-21T02:47:15;11.10;99.90
22787;DHT22;63134;52.020;4.714;2023-11-21T02:50:02;11.20;99.90
22787;DHT22;63134;52.020;4.714;2023-11-21T02:52:48;11.20;99.90
22787;DHT22;63134;52.020;4.714;2023-11-21T02:55:33;11.30;99.90
22787;DHT22;63134;52.020;4.714;2023-11-21T02:58:25;11.30;99.90
22787;DHT22;63134;52.020;4.714;2023-11-21T03:01:10;11.30;99.90
22787;DHT22;63134;52.020;4.714;2023-11-21T03:04:02;11.30;99.90
22787;DHT22;63134;52.020;4.714;2023-11-21T03:06:48;11.40;99.90
22787;DHT22;63134;52.020;4.714;2023-11-21T03:09:34;11.30;99.90
22787;DHT22;63134;52.020;4.714;2023-11-21T03:12:22;11.40;99.90
22787;DHT22;63134;52.020;4.714;2023-11-21T03:15:08;11.40;99.90
22787;DHT22;63134;52.020;4.714;2023-11-21T03:17:55;11.40;99.90
22787;DHT22;63134;52.020;4.714;2023-11-21T03:20:43;11.40;99.90
22787;DHT22;63134;52.020;4.714;2023-11-21T03:23:32;11.50;99.90
22787;DHT22;63134;52.020;4.714;2023-11-21T03:26:17;11.50;99.90
22787;DHT22;63134;52.020;4.714;2023-11-21T03:29:03;11.50;99.90
22787;DHT22;63134;52.020;4.714;2023-11-21T03:31:53;11.50;99.90
22787;DHT22;63134;52.020;4.714;2023-11-21T03:34:53;11.40;99.90
22787;DHT22;63134;52.020;4.714;2023-11-21T03:37:41;11.40;99.90
22787;DHT22;63134;52.020;4.714;2023-11-21T03:40:27;11.40;99.90
22787;DHT22;63134;52.020;4.714;2023-11-21T03:43:13;11.30;99.90
22787;DHT22;63134;52.020;4.714;2023-11-21T03:45:58;11.30;99.90
22787;DHT22;63134;52.020;4.714;2023-11-21T03:48:45;11.30;99.90
22787;DHT22;63134;52.020;4.714;2023-11-21T03:51:33;11.20;99.90
22787;DHT22;63134;52.020;4.714;2023-11-21T03:54:21;11.20;99.90
22787;DHT22;63134;52.020;4.714;2023-11-21T03:57:09;11.30;99.90
22787;DHT22;63134;52.020;4.714;2023-11-21T03:59:55;11.40;99.90
22787;DHT22;63134;52.020;4.714;2023-11-21T04:02:40;11.30;99.90
22787;DHT22;63134;52.020;4.714;2023-11-21T04:05:26;11.40;99.90
22787;DHT22;63134;52.020;4.714;2023-11-21T04:08:11;11.40;99.90
22787;DHT22;63134;52.020;4.714;2023-11-21T04:10:57;11.50;99.90
22787;DHT22;63134;52.020;4.714;2023-11-21T04:13:44;11.50;99.90
22787;DHT22;63134;52.020;4.714;2023-11-21T04:16:31;11.50;99.90
22787;DHT22;63134;52.020;4.714;2023-11-21T04:19:17;11.50;99.90
22787;DHT22;63134;52.020;4.714;2023-11-21T04:22:02;11.50;99.90
22787;DHT22;63134;52.020;4.714;2023-11-21T04:24:49;11.50;99.90
22787;DHT22;63134;52.020;4.714;2023-11-21T04:27:39;11.50;99.90
22787;DHT22;63134;52.020;4.714;2023-11-21T04:30:25;11.60;99.90
22787;DHT22;63134;52.020;4.714;2023-11-21T04:33:11;11.60;99.90
22787;DHT22;63134;52.020;4.714;2023-11-21T04:35:57;11.60;99.90
22787;DHT22;63134;52.020;4.714;2023-11-21T04:38:43;11.60;99.90
22787;DHT22;63134;52.020;4.714;2023-11-21T04:41:30;11.60;99.90
22787;DHT22;63134;52.020;4.714;2023-11-21T04:44:16;11.60;99.90
22787;DHT22;63134;52.020;4.714;2023-11-21T04:47:02;11.60;99.90
22787;DHT22;63134;52.020;4.714;2023-11-21T04:49:50;11.70;99.90
22787;DHT22;63134;52.020;4.714;2023-11-21T04:52:41;11.70;99.90
22787;DHT22;63134;52.020;4.714;2023-11-21T04:55:26;11.70;99.90
22787;DHT22;63134;52.020;4.714;2023-11-21T04:58:15;11.70;99.90
22787;DHT22;63134;52.020;4.714;2023-11-21T05:01:01;11.80;99.90
22787;DHT22;63134;52.020;4.714;2023-11-21T05:03:49;11.80;99.90
22787;DHT22;63134;52.020;4.714;2023-11-21T05:06:38;11.70;99.90
22787;DHT22;63134;52.020;4.714;2023-11-21T05:09:24;11.70;99.90
22787;DHT22;63134;52.020;4.714;2023-11-21T05:12:10;11.70;99.90
22787;DHT22;63134;52.020;4.714;2023-11-21T05:14:56;11.70;99.90
22787;DHT22;63134;52.020;4.714;2023-11-21T05:17:44;11.70;99.90
22787;DHT22;63134;52.020;4.714;2023-11-21T05:20:31;11.70;99.90
22787;DHT22;63134;52.020;4.714;2023-11-21T05:23:16;11.60;99.90
22787;DHT22;63134;52.020;4.714;2023-11-21T05:26:03;11.60;99.90
22787;DHT22;63134;52.020;4.714;2023-11-21T05:28:51;11.60;99.90
22787;DHT22;63134;52.020;4.714;2023-11-21T05:31:40;11.60;99.90
22787;DHT22;63134;52.020;4.714;2023-11-21T05:34:26;11.60;99.90
22787;DHT22;63134;52.020;4.714;2023-11-21T05:37:11;11.60;99.90
22787;DHT22;63134;52.020;4.714;2023-11-21T05:39:57;11.60;99.90
22787;DHT22;63134;52.020;4.714;2023-11-21T05:42:44;11.60;99.90
22787;DHT22;63134;52.020;4.714;2023-11-21T05:45:30;11.50;99.90
22787;DHT22;63134;52.020;4.714;2023-11-21T05:48:15;11.50;99.90
22787;DHT22;63134;52.020;4.714;2023-11-21T05:51:01;11.50;99.90
22787;DHT22;63134;52.020;4.714;2023-11-21T05:53:47;11.40;99.90
22787;DHT22;63134;52.020;4.714;2023-11-21T05:56:32;11.40;99.90
22787;DHT22;63134;52.020;4.714;2023-11-21T05:59:23;11.40;99.90
22787;DHT22;63134;52.020;4.714;2023-11-21T06:02:08;11.40;99.90
22787;DHT22;63134;52.020;4.714;2023-11-21T06:05:03;11.40;99.90
22787;DHT22;63134;52.020;4.714;2023-11-21T06:07:50;11.40;99.90
22787;DHT22;63134;52.020;4.714;2023-11-21T06:10:36;11.50;99.90
22787;DHT22;63134;52.020;4.714;2023-11-21T06:13:21;11.60;99.90
22787;DHT22;63134;52.020;4.714;2023-11-21T06:16:09;11.60;99.90
22787;DHT22;63134;52.020;4.714;2023-11-21T06:18:55;11.60;99.90
22787;DHT22;63134;52.020;4.714;2023-11-21T06:21:40;11.60;99.90
22787;DHT22;63134;52.020;4.714;2023-11-21T06:24:26;11.70;99.90
22787;DHT22;63134;52.020;4.714;2023-11-21T06:27:11;11.70;99.90
22787;DHT22;63134;52.020;4.714;2023-11-21T06:29:58;11.70;99.90
22787;DHT22;63134;52.020;4.714;2023-11-21T06:32:45;11.70;99.90
22787;DHT22;63134;52.020;4.714;2023-11-21T06:35:35;11.70;99.90
22787;DHT22;63134;52.020;4.714;2023-11-21T06:38:23;11.70;99.90
22787;DHT22;63134;52.020;4.714;2023-11-21T06:41:08;11.60;99.90
22787;DHT22;63134;52.020;4.714;2023-11-21T06:43:53;11.40;99.90
22787;DHT22;63134;52.020;4.714;2023-11-21T06:46:39;11.30;99.90
22787;DHT22;63134;52.020;4.714;2023-11-21T06:49:28;11.30;99.90
22787;DHT22;63134;52.020;4.714;2023-11-21T06:52:20;11.30;99.90
22787;DHT22;63134;52.020;4.714;2023-11-21T06:55:06;11.40;99.90
22787;DHT22;63134;52.020;4.714;2023-11-21T06:57:54;11.40;99.90
22787;DHT22;63134;52.020;4.714;2023-11-21T07:00:40;11.50;99.90
22787;DHT22;63134;52.020;4.714;2023-11-21T07:03:28;11.50;99.90
22787;DHT22;63134;52.020;4.714;2023-11-21T07:06:14;11.60;99.90
22787;DHT22;63134;52.020;4.714;2023-11-21T07:09:02;11.60;99.90
22787;DHT22;63134;52.020;4.714;2023-11-21T07:11:49;11.70;99.90
22787;DHT22;63134;52.020;4.714;2023-11-21T07:14:34;11.70;99.90
22787;DHT22;63134;52.020;4.714;2023-11-21T07:17:23;11.70;99.90
22787;DHT22;63134;52.020;4.714;2023-11-21T07:20:09;11.70;99.90
22787;DHT22;63134;52.020;4.714;2023-11-21T07:22:59;11.80;99.90
22787;DHT22;63134;52.020;4.714;2023-11-21T07:25:45;11.90;99.90
22787;DHT22;63134;52.020;4.714;2023-11-21T07:28:30;11.90;99.90
22787;DHT22;63134;52.020;4.714;2023-11-21T07:31:16;11.90;99.90
22787;DHT22;63134;52.020;4.714;2023-11-21T07:34:01;11.90;99.90
22787;DHT22;63134;52.020;4.714;2023-11-21T07:36:47;11.90;99.90
22787;DHT22;63134;52.020;4.714;2023-11-21T07:39:33;12.00;99.90
22787;DHT22;63134;52.020;4.714;2023-11-21T07:42:18;12.00;99.90
22787;DHT22;63134;52.020;4.714;2023-11-21T07:45:08;12.00;99.90
22787;DHT22;63134;52.020;4.714;2023-11-21T07:47:56;12.00;99.90
22787;DHT22;63134;52.020;4.714;2023-11-21T07:50:43;12.00;99.90
22787;DHT22;63134;52.020;4.714;2023-11-21T07:53:29;12.10;99.90
22787;DHT22;63134;52.020;4.714;2023-11-21T07:56:15;12.20;99.90
22787;DHT22;63134;52.020;4.714;2023-11-21T07:59:00;12.20;99.90
22787;DHT22;63134;52.020;4.714;2023-11-21T08:01:46;12.20;99.90
22787;DHT22;63134;52.020;4.714;2023-11-21T08:04:31;12.20;99.90
22787;DHT22;63134;52.020;4.714;2023-11-21T08:07:20;12.20;99.90
22787;DHT22;63134;52.020;4.714;2023-11-21T08:10:07;12.20;99.90
22787;DHT22;63134;52.020;4.714;2023-11-21T08:12:55;12.30;99.90
22787;DHT22;63134;52.020;4.714;2023-11-21T08:15:40;12.30;99.90
22787;DHT22;63134;52.020;4.714;2023-11-21T08:18:26;12.30;99.90
22787;DHT22;63134;52.020;4.714;2023-11-21T08:21:17;12.30;99.90
22787;DHT22;63134;52.020;4.714;2023-11-21T08:24:06;12.30;99.90
22787;DHT22;63134;52.020;4.714;2023-11-21T08:26:56;12.40;99.90
22787;DHT22;63134;52.020;4.714;2023-11-21T08:29:42;12.50;99.90
22787;DHT22;63134;52.020;4.714;2023-11-21T08:32:29;12.60;99.90
22787;DHT22;63134;52.020;4.714;2023-11-21T08:35:17;12.60;99.90
22787;DHT22;63134;52.020;4.714;2023-11-21T08:38:06;12.60;99.90
22787;DHT22;63134;52.020;4.714;2023-11-21T08:40:51;12.60;99.90
22787;DHT22;63134;52.020;4.714;2023-11-21T08:43:37;12.60;99.90
22787;DHT22;63134;52.020;4.714;2023-11-21T08:46:28;12.60;99.90
22787;DHT22;63134;52.020;4.714;2023-11-21T08:49:16;12.60;99.90
22787;DHT22;63134;52.020;4.714;2023-11-21T08:52:02;12.60;99.90
22787;DHT22;63134;52.020;4.714;2023-11-21T08:54:48;12.60;99.90
22787;DHT22;63134;52.020;4.714;2023-11-21T08:57:35;12.70;99.90
22787;DHT22;63134;52.020;4.714;2023-11-21T09:00:23;12.80;99.90
22787;DHT22;63134;52.020;4.714;2023-11-21T09:03:09;12.90;99.90
22787;DHT22;63134;52.020;4.714;2023-11-21T09:05:58;13.00;99.90
22787;DHT22;63134;52.020;4.714;2023-11-21T09:08:44;13.00;99.90
22787;DHT22;63134;52.020;4.714;2023-11-21T09:11:30;13.00;99.90
22787;DHT22;63134;52.020;4.714;2023-11-21T09:14:18;13.10;99.90
22787;DHT22;63134;52.020;4.714;2023-11-21T09:17:07;13.20;99.90
22787;DHT22;63134;52.020;4.714;2023-11-21T09:19:56;13.30;99.90
22787;DHT22;63134;52.020;4.714;2023-11-21T09:22:42;13.30;99.90
22787;DHT22;63134;52.020;4.714;2023-11-21T09:25:30;13.30;99.90
22787;DHT22;63134;52.020;4.714;2023-11-21T09:28:15;13.30;99.90
22787;DHT22;63134;52.020;4.714;2023-11-21T09:31:08;13.30;99.90
22787;DHT22;63134;52.020;4.714;2023-11-21T09:33:55;13.30;99.90
22787;DHT22;63134;52.020;4.714;2023-11-21T09:36:49;13.20;99.90
22787;DHT22;63134;52.020;4.714;2023-11-21T09:39:35;13.20;99.90
22787;DHT22;63134;52.020;4.714;2023-11-21T09:42:36;13.10;99.90
22787;DHT22;63134;52.020;4.714;2023-11-21T09:45:28;13.10;99.90
22787;DHT22;63134;52.020;4.714;2023-11-21T09:48:15;13.10;99.90
22787;DHT22;63134;52.020;4.714;2023-11-21T09:51:01;13.10;99.90
22787;DHT22;63134;52.020;4.714;2023-11-21T09:53:50;13.10;99.90
22787;DHT22;63134;52.020;4.714;2023-11-21T09:56:38;13.10;99.90
22787;DHT22;63134;52.020;4.714;2023-11-21T09:59:24;13.10;99.90
22787;DHT22;63134;52.020;4.714;2023-11-21T10:02:09;13.10;99.90
22787;DHT22;63134;52.020;4.714;2023-11-21T10:04:59;13.20;99.90
22787;DHT22;63134;52.020;4.714;2023-11-21T10:07:45;13.10;99.90
22787;DHT22;63134;52.020;4.714;2023-11-21T10:10:35;13.10;99.90
22787;DHT22;63134;52.020;4.714;2023-11-21T10:13:21;13.10;99.90
22787;DHT22;63134;52.020;4.714;2023-11-21T10:16:07;13.00;99.90
22787;DHT22;63134;52.020;4.714;2023-11-21T10:19:01;13.00;99.90
22787;DHT22;63134;52.020;4.714;2023-11-21T10:21:55;13.00;99.90
22787;DHT22;63134;52.020;4.714;2023-11-21T10:24:46;13.00;99.90
22787;DHT22;63134;52.020;4.714;2023-11-21T10:27:38;12.90;99.90
22787;DHT22;63134;52.020;4.714;2023-11-21T10:30:30;12.90;99.90
22787;DHT22;63134;52.020;4.714;2023-11-21T10:33:17;12.80;99.90
22787;DHT22;63134;52.020;4.714;2023-11-21T10:36:11;12.80;99.90
22787;DHT22;63134;52.020;4.714;2023-11-21T10:38:57;12.80;99.90
22787;DHT22;63134;52.020;4.714;2023-11-21T10:41:47;12.70;99.90
22787;DHT22;63134;52.020;4.714;2023-11-21T10:44:34;12.80;99.90
22787;DHT22;63134;52.020;4.714;2023-11-21T10:47:22;12.80;99.90
22787;DHT22;63134;52.020;4.714;2023-11-21T10:50:09;12.80;99.90
22787;DHT22;63134;52.020;4.714;2023-11-21T10:52:57;12.90;99.90
22787;DHT22;63134;52.020;4.714;2023-11-21T10:55:42;12.80;99.90
22787;DHT22;63134;52.020;4.714;2023-11-21T10:58:30;12.80;99.90
22787;DHT22;63134;52.020;4.714;2023-11-21T11:01:19;12.90;99.90
22787;DHT22;63134;52.020;4.714;2023-11-21T11:04:08;12.90;99.90
22787;DHT22;63134;52.020;4.714;2023-11-21T11:07:03;12.80;99.90
22787;DHT22;63134;52.020;4.714;2023-11-21T11:09:51;12.90;99.90
22787;DHT22;63134;52.020;4.714;2023-11-21T11:12:37;12.90;99.90
22787;DHT22;63134;52.020;4.714;2023-11-21T11:15:28;13.00;99.90
22787;DHT22;63134;52.020;4.714;2023-11-21T11:18:14;13.00;99.90
22787;DHT22;63134;52.020;4.714;2023-11-21T11:21:17;13.10;99.90
22787;DHT22;63134;52.020;4.714;2023-11-21T11:33:48;13.20;99.90
22787;DHT22;63134;52.020;4.714;2023-11-21T11:36:48;13.20;99.90
22787;DHT22;63134;52.020;4.714;2023-11-21T11:39:39;13.20;99.90
22787;DHT22;63134;52.020;4.714;2023-11-21T11:42:27;13.20;99.90
22787;DHT22;63134;52.020;4.714;2023-11-21T11:45:18;13.20;99.90
22787;DHT22;63134;52.020;4.714;2023-11-21T11:48:07;13.30;99.90
22787;DHT22;63134;52.020;4.714;2023-11-21T11:51:12;13.30;99.90
22787;DHT22;63134;52.020;4.714;2023-11-21T11:54:06;13.30;99.90
22787;DHT22;63134;52.020;4.714;2023-11-21T11:56:54;13.40;99.90
22787;DHT22;63134;52.020;4.714;2023-11-21T12:00:41;13.40;99.90
22787;DHT22;63134;52.020;4.714;2023-11-21T12:03:19;13.50;99.90
22787;DHT22;63134;52.020;4.714;2023-11-21T12:06:05;13.50;99.00
22787;DHT22;63134;52.020;4.714;2023-11-21T12:08:52;13.40;98.90
22787;DHT22;63134;52.020;4.714;2023-11-21T12:11:38;13.30;99.10
22787;DHT22;63134;52.020;4.714;2023-11-21T12:14:23;13.20;99.40
22787;DHT22;63134;52.020;4.714;2023-11-21T12:17:09;13.10;99.50
22787;DHT22;63134;52.020;4.714;2023-11-21T12:20:06;13.00;99.20
22787;DHT22;63134;52.020;4.714;2023-11-21T12:23:05;12.90;99.30
22787;DHT22;63134;52.020;4.714;2023-11-21T12:25:54;12.90;99.80
22787;DHT22;63134;52.020;4.714;2023-11-21T12:28:40;12.90;99.90
22787;DHT22;63134;52.020;4.714;2023-11-21T12:31:26;12.90;99.60
22787;DHT22;63134;52.020;4.714;2023-11-21T12:34:12;12.90;99.80
22787;DHT22;63134;52.020;4.714;2023-11-21T12:36:59;13.00;99.90
22787;DHT22;63134;52.020;4.714;2023-11-21T12:39:44;13.10;99.50
22787;DHT22;63134;52.020;4.714;2023-11-21T12:42:33;13.10;99.80
22787;DHT22;63134;52.020;4.714;2023-11-21T12:45:21;13.20;99.90
22787;DHT22;63134;52.020;4.714;2023-11-21T12:48:09;13.30;99.80
22787;DHT22;63134;52.020;4.714;2023-11-21T12:50:57;13.40;99.50
22787;DHT22;63134;52.020;4.714;2023-11-21T12:53:45;13.60;99.90
22787;DHT22;63134;52.020;4.714;2023-11-21T12:56:32;14.00;99.90
22787;DHT22;63134;52.020;4.714;2023-11-21T12:59:17;14.10;99.60
22787;DHT22;63134;52.020;4.714;2023-11-21T13:02:06;14.10;99.20
22787;DHT22;63134;52.020;4.714;2023-11-21T13:04:52;14.10;98.30
22787;DHT22;63134;52.020;4.714;2023-11-21T13:07:43;14.00;97.60
22787;DHT22;63134;52.020;4.714;2023-11-21T13:10:32;14.00;98.00
22787;DHT22;63134;52.020;4.714;2023-11-21T13:13:22;14.10;97.50
22787;DHT22;63134;52.020;4.714;2023-11-21T13:16:10;14.00;96.90
22787;DHT22;63134;52.020;4.714;2023-11-21T13:18:58;13.80;96.60
22787;DHT22;63134;52.020;4.714;2023-11-21T13:21:45;13.60;96.70
22787;DHT22;63134;52.020;4.714;2023-11-21T13:24:33;13.50;96.60
22787;DHT22;63134;52.020;4.714;2023-11-21T13:27:20;13.40;96.90
22787;DHT22;63134;52.020;4.714;2023-11-21T13:30:07;13.40;97.00
22787;DHT22;63134;52.020;4.714;2023-11-21T13:32:55;13.20;97.00
22787;DHT22;63134;52.020;4.714;2023-11-21T13:35:47;13.20;97.20
22787;DHT22;63134;52.020;4.714;2023-11-21T13:38:38;13.20;97.20
22787;DHT22;63134;52.020;4.714;2023-11-21T13:41:28;13.10;97.50
22787;DHT22;63134;52.020;4.714;2023-11-21T13:44:16;13.10;97.80
22787;DHT22;63134;52.020;4.714;2023-11-21T13:47:11;13.00;97.50
22787;DHT22;63134;52.020;4.714;2023-11-21T13:49:56;13.00;97.50
22787;DHT22;63134;52.020;4.714;2023-11-21T13:52:42;12.90;97.30
22787;DHT22;63134;52.020;4.714;2023-11-21T13:55:28;12.80;97.60
22787;DHT22;63134;52.020;4.714;2023-11-21T13:58:14;12.70;97.50
22787;DHT22;63134;52.020;4.714;2023-11-21T14:01:05;12.70;97.80
22787;DHT22;63134;52.020;4.714;2023-11-21T14:04:00;12.60;97.70
22787;DHT22;63134;52.020;4.714;2023-11-21T14:07:01;12.60;97.70
22787;DHT22;63134;52.020;4.714;2023-11-21T14:10:06;12.50;97.60
22787;DHT22;63134;52.020;4.714;2023-11-21T14:12:57;12.40;97.90
22787;DHT22;63134;52.020;4.714;2023-11-21T14:15:46;12.40;98.30
22787;DHT22;63134;52.020;4.714;2023-11-21T14:18:38;12.40;98.30
22787;DHT22;63134;52.020;4.714;2023-11-21T14:21:35;12.40;98.40
22787;DHT22;63134;52.020;4.714;2023-11-21T14:24:21;12.30;98.40
22787;DHT22;63134;52.020;4.714;2023-11-21T14:27:11;12.30;98.30
22787;DHT22;63134;52.020;4.714;2023-11-21T14:29:56;12.30;98.20
22787;DHT22;63134;52.020;4.714;2023-11-21T14:32:43;12.20;98.30
22787;DHT22;63134;52.020;4.714;2023-11-21T14:35:32;12.30;98.50
22787;DHT22;63134;52.020;4.714;2023-11-21T14:38:23;12.30;98.50
22787;DHT22;63134;52.020;4.714;2023-11-21T14:41:09;12.30;98.40
22787;DHT22;63134;52.020;4.714;2023-11-21T14:43:59;12.30;98.30
22787;DHT22;63134;52.020;4.714;2023-11-21T14:46:50;12.20;98.00
22787;DHT22;63134;52.020;4.714;2023-11-21T14:49:43;12.20;98.00
22787;DHT22;63134;52.020;4.714;2023-11-21T14:52:43;12.10;97.80
22787;DHT22;63134;52.020;4.714;2023-11-21T14:55:41;12.00;97.90
22787;DHT22;63134;52.020;4.714;2023-11-21T14:58:36;11.90;97.90
22787;DHT22;63134;52.020;4.714;2023-11-21T15:01:24;11.90;98.10
22787;DHT22;63134;52.020;4.714;2023-11-21T15:04:30;11.90;98.30
22787;DHT22;63134;52.020;4.714;2023-11-21T15:07:22;11.90;98.20
22787;DHT22;63134;52.020;4.714;2023-11-21T15:10:11;11.90;98.30
22787;DHT22;63134;52.020;4.714;2023-11-21T15:13:01;11.80;98.10
22787;DHT22;63134;52.020;4.714;2023-11-21T15:15:48;11.80;98.40
22787;DHT22;63134;52.020;4.714;2023-11-21T15:18:36;11.80;98.40
22787;DHT22;63134;52.020;4.714;2023-11-21T15:21:21;11.70;98.50
22787;DHT22;63134;52.020;4.714;2023-11-21T15:24:10;11.70;98.30
22787;DHT22;63134;52.020;4.714;2023-11-21T15:26:56;11.60;98.70
22787;DHT22;63134;52.020;4.714;2023-11-21T15:29:42;11.60;98.40
22787;DHT22;63134;52.020;4.714;2023-11-21T15:32:31;11.60;98.50
22787;DHT22;63134;52.020;4.714;2023-11-21T15:35:16;11.60;98.40
22787;DHT22;63134;52.020;4.714;2023-11-21T15:38:04;11.50;98.60
22787;DHT22;63134;52.020;4.714;2023-11-21T15:40:55;11.50;98.60
22787;DHT22;63134;52.020;4.714;2023-11-21T15:43:45;11.50;98.60
22787;DHT22;63134;52.020;4.714;2023-11-21T15:46:35;11.50;98.30
22787;DHT22;63134;52.020;4.714;2023-11-21T15:49:22;11.40;97.90
22787;DHT22;63134;52.020;4.714;2023-11-21T15:52:08;11.40;98.20
22787;DHT22;63134;52.020;4.714;2023-11-21T15:54:56;11.40;98.20
22787;DHT22;63134;52.020;4.714;2023-11-21T15:57:45;11.40;98.30
22787;DHT22;63134;52.020;4.714;2023-11-21T16:00:31;11.30;98.10
22787;DHT22;63134;52.020;4.714;2023-11-21T16:03:16;11.30;97.90
22787;DHT22;63134;52.020;4.714;2023-11-21T16:06:03;11.30;98.10
22787;DHT22;63134;52.020;4.714;2023-11-21T16:08:52;11.20;98.00
22787;DHT22;63134;52.020;4.714;2023-11-21T16:11:39;11.10;97.90
22787;DHT22;63134;52.020;4.714;2023-11-21T16:14:25;11.10;98.00
22787;DHT22;63134;52.020;4.714;2023-11-21T16:17:13;11.10;98.00
22787;DHT22;63134;52.020;4.714;2023-11-21T16:20:08;11.00;98.00
22787;DHT22;63134;52.020;4.714;2023-11-21T16:22:56;11.00;98.10
22787;DHT22;63134;52.020;4.714;2023-11-21T16:25:43;11.00;98.00
22787;DHT22;63134;52.020;4.714;2023-11-21T16:28:28;10.90;98.10
22787;DHT22;63134;52.020;4.714;2023-11-21T16:31:22;10.90;98.20
22787;DHT22;63134;52.020;4.714;2023-11-21T16:34:20;10.90;98.20
22787;DHT22;63134;52.020;4.714;2023-11-21T16:37:07;10.90;98.20
22787;DHT22;63134;52.020;4.714;2023-11-21T16:39:58;10.90;98.20
22787;DHT22;63134;52.020;4.714;2023-11-21T16:42:45;10.80;98.10
22787;DHT22;63134;52.020;4.714;2023-11-21T16:45:30;10.70;98.20
22787;DHT22;63134;52.020;4.714;2023-11-21T16:48:16;10.70;98.20
22787;DHT22;63134;52.020;4.714;2023-11-21T16:51:02;10.70;98.10
22787;DHT22;63134;52.020;4.714;2023-11-21T16:53:47;10.50;97.90
22787;DHT22;63134;52.020;4.714;2023-11-21T16:56:33;10.40;98.10
22787;DHT22;63134;52.020;4.714;2023-11-21T16:59:20;10.40;98.30
22787;DHT22;63134;52.020;4.714;2023-11-21T17:02:05;10.40;98.70
22787;DHT22;63134;52.020;4.714;2023-11-21T17:04:52;10.40;98.90
22787;DHT22;63134;52.020;4.714;2023-11-21T17:07:39;10.40;99.10
22787;DHT22;63134;52.020;4.714;2023-11-21T17:10:25;10.40;99.10
22787;DHT22;63134;52.020;4.714;2023-11-21T17:13:13;10.40;99.10
22787;DHT22;63134;52.020;4.714;2023-11-21T17:16:00;10.40;99.20
22787;DHT22;63134;52.020;4.714;2023-11-21T17:18:46;10.40;99.10
22787;DHT22;63134;52.020;4.714;2023-11-21T17:21:32;10.40;99.00
22787;DHT22;63134;52.020;4.714;2023-11-21T17:24:22;10.40;99.00
22787;DHT22;63134;52.020;4.714;2023-11-21T17:27:08;10.40;99.10
22787;DHT22;63134;52.020;4.714;2023-11-21T17:30:04;10.40;99.10
22787;DHT22;63134;52.020;4.714;2023-11-21T17:32:51;10.40;99.00
22787;DHT22;63134;52.020;4.714;2023-11-21T17:35:38;10.30;98.80
22787;DHT22;63134;52.020;4.714;2023-11-21T17:38:24;10.20;98.50
22787;DHT22;63134;52.020;4.714;2023-11-21T17:41:11;10.10;98.20
22787;DHT22;63134;52.020;4.714;2023-11-21T17:43:59;9.90;98.00
22787;DHT22;63134;52.020;4.714;2023-11-21T17:46:50;9.80;98.10
22787;DHT22;63134;52.020;4.714;2023-11-21T17:49:36;9.60;98.20
22787;DHT22;63134;52.020;4.714;2023-11-21T17:52:21;9.60;98.50